sensor_id;sensor_type;location;lat;lon;timestamp;P1;durP1;ratioP1;P2;durP2;ratioP2
12816;SDS011;6473;51.552;6.716;2023-04-25T00:01:02;11.90;;;4.47;;
12816;SDS011;6473;51.552;6.716;2023-04-25T00:03:31;8.18;;;4.32;;
12816;SDS011;6473;51.552;6.716;2023-04-25T00:05:58;7.13;;;4.22;;
12816;SDS011;6473;51.552;6.716;2023-04-25T00:08:27;6.65;;;4.57;;
12816;SDS011;6473;51.552;6.716;2023-04-25T00:10:54;10.10;;;4.57;;
12816;SDS011;6473;51.552;6.716;2023-04-25T00:13:21;8.93;;;4.88;;
12816;SDS011;6473;51.552;6.716;2023-04-25T00:15:48;10.77;;;4.75;;
12816;SDS011;6473;51.552;6.716;2023-04-25T00:18:15;9.52;;;4.55;;
12816;SDS011;6473;51.552;6.716;2023-04-25T00:20:44;7.97;;;4.60;;
12816;SDS011;6473;51.552;6.716;2023-04-25T00:23:11;8.90;;;4.90;;
12816;SDS011;6473;51.552;6.716;2023-04-25T00:25:42;8.73;;;4.93;;
12816;SDS011;6473;51.552;6.716;2023-04-25T00:28:09;11.43;;;4.93;;
12816;SDS011;6473;51.552;6.716;2023-04-25T00:30:36;12.93;;;5.50;;
12816;SDS011;6473;51.552;6.716;2023-04-25T00:33:03;10.30;;;5.00;;
12816;SDS011;6473;51.552;6.716;2023-04-25T00:35:31;9.10;;;4.32;;
12816;SDS011;6473;51.552;6.716;2023-04-25T00:37:59;7.78;;;4.30;;
12816;SDS011;6473;51.552;6.716;2023-04-25T00:40:26;12.45;;;4.90;;
12816;SDS011;6473;51.552;6.716;2023-04-25T00:42:53;10.52;;;4.38;;
12816;SDS011;6473;51.552;6.716;2023-04-25T00:45:21;8.50;;;4.50;;
12816;SDS011;6473;51.552;6.716;2023-04-25T00:47:47;9.73;;;5.13;;
12816;SDS011;6473;51.552;6.716;2023-04-25T00:50:14;10.02;;;5.03;;
12816;SDS011;6473;51.552;6.716;2023-04-25T00:52:42;9.30;;;4.53;;
12816;SDS011;6473;51.552;6.716;2023-04-25T00:55:11;9.13;;;5.10;;
12816;SDS011;6473;51.552;6.716;2023-04-25T00:57:39;8.45;;;4.70;;
12816;SDS011;6473;51.552;6.716;2023-04-25T01:00:07;10.43;;;4.65;;
12816;SDS011;6473;51.552;6.716;2023-04-25T01:02:36;10.38;;;5.30;;
12816;SDS011;6473;51.552;6.716;2023-04-25T01:05:04;10.25;;;4.65;;
12816;SDS011;6473;51.552;6.716;2023-04-25T01:07:31;11.63;;;5.15;;
12816;SDS011;6473;51.552;6.716;2023-04-25T01:09:58;9.27;;;5.00;;
12816;SDS011;6473;51.552;6.716;2023-04-25T01:12:26;11.45;;;4.85;;
12816;SDS011;6473;51.552;6.716;2023-04-25T01:14:53;7.13;;;4.43;;
12816;SDS011;6473;51.552;6.716;2023-04-25T01:17:21;9.52;;;4.95;;
12816;SDS011;6473;51.552;6.716;2023-04-25T01:19:48;7.60;;;4.45;;
12816;SDS011;6473;51.552;6.716;2023-04-25T01:22:17;9.00;;;4.57;;
12816;SDS011;6473;51.552;6.716;2023-04-25T01:24:45;8.57;;;4.70;;
12816;SDS011;6473;51.552;6.716;2023-04-25T01:27:12;10.75;;;4.78;;
12816;SDS011;6473;51.552;6.716;2023-04-25T01:29:40;10.00;;;4.85;;
12816;SDS011;6473;51.552;6.716;2023-04-25T01:32:07;10.32;;;4.57;;
12816;SDS011;6473;51.552;6.716;2023-04-25T01:34:35;7.45;;;4.43;;
12816;SDS011;6473;51.552;6.716;2023-04-25T01:37:02;6.63;;;4.32;;
12816;SDS011;6473;51.552;6.716;2023-04-25T01:39:30;6.10;;;4.82;;
12816;SDS011;6473;51.552;6.716;2023-04-25T01:41:58;7.78;;;5.00;;
12816;SDS011;6473;51.552;6.716;2023-04-25T01:44:26;10.55;;;4.78;;
12816;SDS011;6473;51.552;6.716;2023-04-25T01:46:54;8.43;;;4.85;;
12816;SDS011;6473;51.552;6.716;2023-04-25T01:49:20;7.78;;;4.82;;
12816;SDS011;6473;51.552;6.716;2023-04-25T01:51:48;9.88;;;4.65;;
12816;SDS011;6473;51.552;6.716;2023-04-25T01:54:15;8.23;;;4.40;;
12816;SDS011;6473;51.552;6.716;2023-04-25T01:56:49;6.82;;;5.10;;
12816;SDS011;6473;51.552;6.716;2023-04-25T01:59:18;8.93;;;4.03;;
12816;SDS011;6473;51.552;6.716;2023-04-25T02:01:58;9.82;;;4.88;;
12816;SDS011;6473;51.552;6.716;2023-04-25T02:04:29;11.63;;;4.88;;
12816;SDS011;6473;51.552;6.716;2023-04-25T02:06:57;10.88;;;4.85;;
12816;SDS011;6473;51.552;6.716;2023-04-25T02:09:31;7.93;;;4.72;;
12816;SDS011;6473;51.552;6.716;2023-04-25T02:12:05;7.13;;;4.47;;
12816;SDS011;6473;51.552;6.716;2023-04-25T02:14:53;10.45;;;4.90;;
12816;SDS011;6473;51.552;6.716;2023-04-25T02:17:36;10.18;;;4.95;;
12816;SDS011;6473;51.552;6.716;2023-04-25T02:20:05;8.35;;;4.32;;
12816;SDS011;6473;51.552;6.716;2023-04-25T02:22:32;11.75;;;5.20;;
12816;SDS011;6473;51.552;6.716;2023-04-25T02:25:00;9.60;;;5.45;;
12816;SDS011;6473;51.552;6.716;2023-04-25T02:27:31;10.38;;;4.88;;
12816;SDS011;6473;51.552;6.716;2023-04-25T02:29:58;17.73;;;5.18;;
12816;SDS011;6473;51.552;6.716;2023-04-25T02:32:25;11.98;;;4.55;;
12816;SDS011;6473;51.552;6.716;2023-04-25T02:34:52;10.82;;;5.32;;
12816;SDS011;6473;51.552;6.716;2023-04-25T02:37:18;8.70;;;4.55;;
12816;SDS011;6473;51.552;6.716;2023-04-25T02:39:45;8.68;;;4.90;;
12816;SDS011;6473;51.552;6.716;2023-04-25T02:42:12;8.85;;;5.25;;
12816;SDS011;6473;51.552;6.716;2023-04-25T02:44:40;14.68;;;5.28;;
12816;SDS011;6473;51.552;6.716;2023-04-25T02:47:07;12.32;;;4.93;;
12816;SDS011;6473;51.552;6.716;2023-04-25T02:49:34;10.43;;;5.28;;
12816;SDS011;6473;51.552;6.716;2023-04-25T02:52:01;10.50;;;4.50;;
12816;SDS011;6473;51.552;6.716;2023-04-25T02:54:28;12.77;;;5.07;;
12816;SDS011;6473;51.552;6.716;2023-04-25T02:56:56;11.90;;;4.65;;
12816;SDS011;6473;51.552;6.716;2023-04-25T02:59:27;10.52;;;5.25;;
12816;SDS011;6473;51.552;6.716;2023-04-25T03:01:56;13.10;;;5.25;;
12816;SDS011;6473;51.552;6.716;2023-04-25T03:04:23;15.20;;;5.70;;
12816;SDS011;6473;51.552;6.716;2023-04-25T03:06:50;12.68;;;5.68;;
12816;SDS011;6473;51.552;6.716;2023-04-25T03:09:19;9.95;;;5.57;;
12816;SDS011;6473;51.552;6.716;2023-04-25T03:11:47;12.02;;;5.47;;
12816;SDS011;6473;51.552;6.716;2023-04-25T03:14:14;15.13;;;5.50;;
12816;SDS011;6473;51.552;6.716;2023-04-25T03:16:41;13.52;;;5.93;;
12816;SDS011;6473;51.552;6.716;2023-04-25T03:19:09;13.35;;;5.47;;
12816;SDS011;6473;51.552;6.716;2023-04-25T03:21:36;10.95;;;5.15;;
12816;SDS011;6473;51.552;6.716;2023-04-25T03:24:04;9.80;;;4.80;;
12816;SDS011;6473;51.552;6.716;2023-04-25T03:26:31;11.63;;;5.32;;
12816;SDS011;6473;51.552;6.716;2023-04-25T03:28:58;10.90;;;5.47;;
12816;SDS011;6473;51.552;6.716;2023-04-25T03:31:26;10.43;;;5.60;;
12816;SDS011;6473;51.552;6.716;2023-04-25T03:33:52;11.65;;;5.38;;
12816;SDS011;6473;51.552;6.716;2023-04-25T03:36:23;10.93;;;5.22;;
12816;SDS011;6473;51.552;6.716;2023-04-25T03:38:50;10.45;;;5.53;;
12816;SDS011;6473;51.552;6.716;2023-04-25T03:41:18;12.57;;;6.15;;
12816;SDS011;6473;51.552;6.716;2023-04-25T03:43:52;13.07;;;5.65;;
12816;SDS011;6473;51.552;6.716;2023-04-25T03:46:20;8.85;;;5.45;;
12816;SDS011;6473;51.552;6.716;2023-04-25T03:48:47;16.58;;;5.47;;
12816;SDS011;6473;51.552;6.716;2023-04-25T03:51:20;12.07;;;5.57;;
12816;SDS011;6473;51.552;6.716;2023-04-25T03:53:49;12.57;;;5.72;;
12816;SDS011;6473;51.552;6.716;2023-04-25T03:56:18;18.30;;;6.72;;
12816;SDS011;6473;51.552;6.716;2023-04-25T03:58:49;17.63;;;5.95;;
12816;SDS011;6473;51.552;6.716;2023-04-25T04:01:18;13.75;;;5.85;;
12816;SDS011;6473;51.552;6.716;2023-04-25T04:03:46;12.45;;;5.65;;
12816;SDS011;6473;51.552;6.716;2023-04-25T04:06:13;11.23;;;5.15;;
12816;SDS011;6473;51.552;6.716;2023-04-25T04:08:44;13.38;;;5.13;;
12816;SDS011;6473;51.552;6.716;2023-04-25T04:11:12;13.68;;;5.03;;
12816;SDS011;6473;51.552;6.716;2023-04-25T04:16:08;12.38;;;5.80;;
12816;SDS011;6473;51.552;6.716;2023-04-25T04:18:36;11.93;;;5.35;;
12816;SDS011;6473;51.552;6.716;2023-04-25T04:21:03;21.05;;;6.10;;
12816;SDS011;6473;51.552;6.716;2023-04-25T04:23:33;13.95;;;6.15;;
12816;SDS011;6473;51.552;6.716;2023-04-25T04:26:01;11.70;;;5.78;;
12816;SDS011;6473;51.552;6.716;2023-04-25T04:28:48;14.73;;;6.57;;
12816;SDS011;6473;51.552;6.716;2023-04-25T04:31:24;13.43;;;5.93;;
12816;SDS011;6473;51.552;6.716;2023-04-25T04:33:50;14.68;;;5.97;;
12816;SDS011;6473;51.552;6.716;2023-04-25T04:36:18;15.32;;;6.28;;
12816;SDS011;6473;51.552;6.716;2023-04-25T04:38:47;17.17;;;6.18;;
12816;SDS011;6473;51.552;6.716;2023-04-25T04:41:24;14.18;;;5.85;;
12816;SDS011;6473;51.552;6.716;2023-04-25T04:44:08;11.60;;;5.82;;
12816;SDS011;6473;51.552;6.716;2023-04-25T04:46:43;15.85;;;5.78;;
12816;SDS011;6473;51.552;6.716;2023-04-25T04:49:27;14.93;;;6.00;;
12816;SDS011;6473;51.552;6.716;2023-04-25T04:52:16;12.95;;;6.13;;
12816;SDS011;6473;51.552;6.716;2023-04-25T04:54:54;14.90;;;6.22;;
12816;SDS011;6473;51.552;6.716;2023-04-25T04:57:41;12.50;;;5.53;;
12816;SDS011;6473;51.552;6.716;2023-04-25T05:00:29;13.65;;;5.70;;
12816;SDS011;6473;51.552;6.716;2023-04-25T05:03:19;12.40;;;5.55;;
12816;SDS011;6473;51.552;6.716;2023-04-25T05:06:09;10.65;;;5.40;;
12816;SDS011;6473;51.552;6.716;2023-04-25T05:08:54;13.38;;;5.57;;
12816;SDS011;6473;51.552;6.716;2023-04-25T05:11:44;9.65;;;5.80;;
12816;SDS011;6473;51.552;6.716;2023-04-25T05:14:25;12.05;;;5.10;;
12816;SDS011;6473;51.552;6.716;2023-04-25T05:17:14;13.95;;;5.60;;
12816;SDS011;6473;51.552;6.716;2023-04-25T05:19:57;16.20;;;5.88;;
12816;SDS011;6473;51.552;6.716;2023-04-25T05:22:49;12.68;;;4.95;;
12816;SDS011;6473;51.552;6.716;2023-04-25T05:25:20;16.63;;;5.53;;
12816;SDS011;6473;51.552;6.716;2023-04-25T05:28:06;13.48;;;5.28;;
12816;SDS011;6473;51.552;6.716;2023-04-25T05:30:56;9.15;;;5.07;;
12816;SDS011;6473;51.552;6.716;2023-04-25T05:33:30;13.05;;;6.10;;
12816;SDS011;6473;51.552;6.716;2023-04-25T05:35:58;12.50;;;5.55;;
12816;SDS011;6473;51.552;6.716;2023-04-25T05:38:25;11.68;;;5.10;;
12816;SDS011;6473;51.552;6.716;2023-04-25T05:41:11;11.93;;;4.97;;
12816;SDS011;6473;51.552;6.716;2023-04-25T05:43:54;12.18;;;5.13;;
12816;SDS011;6473;51.552;6.716;2023-04-25T05:46:28;9.98;;;4.47;;
12816;SDS011;6473;51.552;6.716;2023-04-25T05:49:11;9.70;;;4.55;;
12816;SDS011;6473;51.552;6.716;2023-04-25T05:51:57;11.27;;;4.40;;
12816;SDS011;6473;51.552;6.716;2023-04-25T05:54:27;11.40;;;5.03;;
12816;SDS011;6473;51.552;6.716;2023-04-25T05:56:55;7.47;;;4.63;;
12816;SDS011;6473;51.552;6.716;2023-04-25T05:59:22;10.18;;;4.95;;
12816;SDS011;6473;51.552;6.716;2023-04-25T06:01:49;11.02;;;4.65;;
12816;SDS011;6473;51.552;6.716;2023-04-25T06:04:18;11.23;;;4.95;;
12816;SDS011;6473;51.552;6.716;2023-04-25T06:06:45;12.50;;;4.38;;
12816;SDS011;6473;51.552;6.716;2023-04-25T06:09:12;9.52;;;4.20;;
12816;SDS011;6473;51.552;6.716;2023-04-25T06:11:39;8.75;;;4.22;;
12816;SDS011;6473;51.552;6.716;2023-04-25T06:14:06;10.52;;;3.85;;
12816;SDS011;6473;51.552;6.716;2023-04-25T06:16:38;8.43;;;3.50;;
12816;SDS011;6473;51.552;6.716;2023-04-25T06:19:05;9.88;;;4.22;;
12816;SDS011;6473;51.552;6.716;2023-04-25T06:21:34;9.85;;;3.75;;
12816;SDS011;6473;51.552;6.716;2023-04-25T06:24:01;7.72;;;3.80;;
12816;SDS011;6473;51.552;6.716;2023-04-25T06:26:29;7.43;;;3.28;;
12816;SDS011;6473;51.552;6.716;2023-04-25T06:28:56;11.45;;;3.67;;
12816;SDS011;6473;51.552;6.716;2023-04-25T06:31:23;9.95;;;4.13;;
12816;SDS011;6473;51.552;6.716;2023-04-25T06:33:51;10.65;;;3.70;;
12816;SDS011;6473;51.552;6.716;2023-04-25T06:36:20;9.32;;;3.90;;
12816;SDS011;6473;51.552;6.716;2023-04-25T06:38:52;9.10;;;4.43;;
12816;SDS011;6473;51.552;6.716;2023-04-25T06:41:19;8.43;;;3.78;;
12816;SDS011;6473;51.552;6.716;2023-04-25T06:43:46;7.95;;;3.58;;
12816;SDS011;6473;51.552;6.716;2023-04-25T06:46:32;6.80;;;3.63;;
12816;SDS011;6473;51.552;6.716;2023-04-25T06:48:59;12.27;;;4.03;;
12816;SDS011;6473;51.552;6.716;2023-04-25T06:51:26;8.82;;;3.70;;
12816;SDS011;6473;51.552;6.716;2023-04-25T06:53:56;8.18;;;3.88;;
12816;SDS011;6473;51.552;6.716;2023-04-25T06:56:29;11.68;;;3.92;;
12816;SDS011;6473;51.552;6.716;2023-04-25T06:59:02;7.20;;;3.67;;
12816;SDS011;6473;51.552;6.716;2023-04-25T07:01:32;8.70;;;3.90;;
12816;SDS011;6473;51.552;6.716;2023-04-25T07:04:02;8.05;;;4.07;;
12816;SDS011;6473;51.552;6.716;2023-04-25T07:06:31;5.68;;;3.63;;
12816;SDS011;6473;51.552;6.716;2023-04-25T07:08:59;5.82;;;3.90;;
12816;SDS011;6473;51.552;6.716;2023-04-25T07:11:27;9.93;;;3.80;;
12816;SDS011;6473;51.552;6.716;2023-04-25T07:13:55;6.03;;;3.40;;
12816;SDS011;6473;51.552;6.716;2023-04-25T07:16:22;10.50;;;3.72;;
12816;SDS011;6473;51.552;6.716;2023-04-25T07:18:50;7.07;;;3.65;;
12816;SDS011;6473;51.552;6.716;2023-04-25T07:21:18;7.95;;;3.50;;
12816;SDS011;6473;51.552;6.716;2023-04-25T07:23:46;7.18;;;3.13;;
12816;SDS011;6473;51.552;6.716;2023-04-25T07:26:19;6.95;;;2.88;;
12816;SDS011;6473;51.552;6.716;2023-04-25T07:29:11;12.60;;;3.50;;
12816;SDS011;6473;51.552;6.716;2023-04-25T07:31:39;5.20;;;2.85;;
12816;SDS011;6473;51.552;6.716;2023-04-25T07:34:06;6.90;;;2.90;;
12816;SDS011;6473;51.552;6.716;2023-04-25T07:36:35;10.63;;;3.17;;
12816;SDS011;6473;51.552;6.716;2023-04-25T07:39:02;5.85;;;3.08;;
12816;SDS011;6473;51.552;6.716;2023-04-25T07:41:31;7.75;;;3.05;;
12816;SDS011;6473;51.552;6.716;2023-04-25T07:43:58;6.25;;;2.72;;
12816;SDS011;6473;51.552;6.716;2023-04-25T07:46:25;7.43;;;3.28;;
12816;SDS011;6473;51.552;6.716;2023-04-25T07:49:00;8.38;;;2.97;;
12816;SDS011;6473;51.552;6.716;2023-04-25T07:51:28;6.32;;;2.55;;
12816;SDS011;6473;51.552;6.716;2023-04-25T07:53:58;5.30;;;2.53;;
12816;SDS011;6473;51.552;6.716;2023-04-25T07:56:26;7.18;;;2.50;;
12816;SDS011;6473;51.552;6.716;2023-04-25T07:58:56;5.82;;;2.53;;
12816;SDS011;6473;51.552;6.716;2023-04-25T08:01:24;5.45;;;2.45;;
12816;SDS011;6473;51.552;6.716;2023-04-25T08:03:58;7.50;;;2.67;;
12816;SDS011;6473;51.552;6.716;2023-04-25T08:06:34;5.85;;;2.40;;
12816;SDS011;6473;51.552;6.716;2023-04-25T08:09:15;9.05;;;2.92;;
12816;SDS011;6473;51.552;6.716;2023-04-25T08:11:42;7.63;;;2.67;;
12816;SDS011;6473;51.552;6.716;2023-04-25T08:14:14;9.65;;;3.05;;
12816;SDS011;6473;51.552;6.716;2023-04-25T08:16:42;9.65;;;2.53;;
12816;SDS011;6473;51.552;6.716;2023-04-25T08:19:10;20.33;;;3.13;;
12816;SDS011;6473;51.552;6.716;2023-04-25T08:21:37;86.78;;;9.77;;
12816;SDS011;6473;51.552;6.716;2023-04-25T08:24:09;4.88;;;2.38;;
12816;SDS011;6473;51.552;6.716;2023-04-25T08:26:38;7.05;;;2.33;;
12816;SDS011;6473;51.552;6.716;2023-04-25T08:29:08;9.45;;;2.47;;
12816;SDS011;6473;51.552;6.716;2023-04-25T08:31:40;5.43;;;2.13;;
12816;SDS011;6473;51.552;6.716;2023-04-25T08:34:07;7.65;;;2.08;;
12816;SDS011;6473;51.552;6.716;2023-04-25T08:36:42;8.43;;;2.53;;
12816;SDS011;6473;51.552;6.716;2023-04-25T08:39:32;3.83;;;2.00;;
12816;SDS011;6473;51.552;6.716;2023-04-25T08:42:19;6.82;;;2.47;;
12816;SDS011;6473;51.552;6.716;2023-04-25T08:44:48;10.07;;;2.47;;
12816;SDS011;6473;51.552;6.716;2023-04-25T08:47:17;4.50;;;1.90;;
12816;SDS011;6473;51.552;6.716;2023-04-25T08:49:52;6.60;;;1.65;;
12816;SDS011;6473;51.552;6.716;2023-04-25T08:52:21;7.13;;;1.85;;
12816;SDS011;6473;51.552;6.716;2023-04-25T08:54:51;4.78;;;1.85;;
12816;SDS011;6473;51.552;6.716;2023-04-25T08:57:19;7.90;;;2.45;;
12816;SDS011;6473;51.552;6.716;2023-04-25T08:59:48;6.72;;;1.70;;
12816;SDS011;6473;51.552;6.716;2023-04-25T09:02:17;3.67;;;1.42;;
12816;SDS011;6473;51.552;6.716;2023-04-25T09:04:48;5.03;;;1.77;;
12816;SDS011;6473;51.552;6.716;2023-04-25T09:07:15;6.25;;;2.35;;
12816;SDS011;6473;51.552;6.716;2023-04-25T09:09:46;5.38;;;2.00;;
12816;SDS011;6473;51.552;6.716;2023-04-25T09:12:16;6.72;;;1.70;;
12816;SDS011;6473;51.552;6.716;2023-04-25T09:14:52;20.80;;;2.75;;
12816;SDS011;6473;51.552;6.716;2023-04-25T09:17:45;5.50;;;1.63;;
12816;SDS011;6473;51.552;6.716;2023-04-25T09:20:12;4.18;;;1.85;;
12816;SDS011;6473;51.552;6.716;2023-04-25T09:22:40;3.08;;;1.35;;
12816;SDS011;6473;51.552;6.716;2023-04-25T09:25:08;6.03;;;1.83;;
12816;SDS011;6473;51.552;6.716;2023-04-25T09:27:42;4.00;;;1.65;;
12816;SDS011;6473;51.552;6.716;2023-04-25T09:30:26;3.58;;;1.50;;
12816;SDS011;6473;51.552;6.716;2023-04-25T09:33:05;3.28;;;1.30;;
12816;SDS011;6473;51.552;6.716;2023-04-25T09:35:36;4.50;;;1.63;;
12816;SDS011;6473;51.552;6.716;2023-04-25T09:38:09;4.03;;;1.70;;
12816;SDS011;6473;51.552;6.716;2023-04-25T09:40:59;5.05;;;1.50;;
12816;SDS011;6473;51.552;6.716;2023-04-25T09:43:45;5.80;;;1.52;;
12816;SDS011;6473;51.552;6.716;2023-04-25T09:46:13;10.10;;;2.25;;
12816;SDS011;6473;51.552;6.716;2023-04-25T09:48:49;4.05;;;1.60;;
12816;SDS011;6473;51.552;6.716;2023-04-25T09:51:25;4.97;;;1.65;;
12816;SDS011;6473;51.552;6.716;2023-04-25T09:53:56;3.92;;;1.42;;
12816;SDS011;6473;51.552;6.716;2023-04-25T09:56:32;5.47;;;1.60;;
12816;SDS011;6473;51.552;6.716;2023-04-25T09:59:04;3.47;;;1.55;;
12816;SDS011;6473;51.552;6.716;2023-04-25T10:01:34;3.75;;;1.23;;
12816;SDS011;6473;51.552;6.716;2023-04-25T10:04:11;3.78;;;1.45;;
12816;SDS011;6473;51.552;6.716;2023-04-25T10:07:00;3.20;;;1.40;;
12816;SDS011;6473;51.552;6.716;2023-04-25T10:09:30;2.88;;;1.40;;
12816;SDS011;6473;51.552;6.716;2023-04-25T10:11:59;5.85;;;1.60;;
12816;SDS011;6473;51.552;6.716;2023-04-25T10:14:26;3.28;;;1.52;;
12816;SDS011;6473;51.552;6.716;2023-04-25T10:16:53;5.95;;;2.28;;
12816;SDS011;6473;51.552;6.716;2023-04-25T10:19:23;7.55;;;1.73;;
12816;SDS011;6473;51.552;6.716;2023-04-25T10:21:51;3.78;;;1.48;;
12816;SDS011;6473;51.552;6.716;2023-04-25T10:24:20;3.00;;;1.35;;
12816;SDS011;6473;51.552;6.716;2023-04-25T10:26:47;2.40;;;1.13;;
12816;SDS011;6473;51.552;6.716;2023-04-25T10:29:21;4.35;;;1.35;;
12816;SDS011;6473;51.552;6.716;2023-04-25T10:31:49;2.13;;;1.17;;
12816;SDS011;6473;51.552;6.716;2023-04-25T10:34:16;1.30;;;1.00;;
12816;SDS011;6473;51.552;6.716;2023-04-25T10:36:44;3.97;;;1.20;;
12816;SDS011;6473;51.552;6.716;2023-04-25T10:39:21;2.47;;;1.20;;
12816;SDS011;6473;51.552;6.716;2023-04-25T10:41:52;3.22;;;1.40;;
12816;SDS011;6473;51.552;6.716;2023-04-25T10:44:20;5.10;;;1.20;;
12816;SDS011;6473;51.552;6.716;2023-04-25T10:46:47;15.90;;;2.22;;
12816;SDS011;6473;51.552;6.716;2023-04-25T10:49:28;3.90;;;1.45;;
12816;SDS011;6473;51.552;6.716;2023-04-25T10:54:55;2.22;;;1.38;;
12816;SDS011;6473;51.552;6.716;2023-04-25T10:57:27;3.83;;;1.40;;
12816;SDS011;6473;51.552;6.716;2023-04-25T11:00:04;3.83;;;1.20;;
12816;SDS011;6473;51.552;6.716;2023-04-25T11:02:39;4.20;;;1.70;;
12816;SDS011;6473;51.552;6.716;2023-04-25T11:05:10;3.25;;;1.38;;
12816;SDS011;6473;51.552;6.716;2023-04-25T11:07:48;3.45;;;1.40;;
12816;SDS011;6473;51.552;6.716;2023-04-25T11:10:18;3.00;;;1.30;;
12816;SDS011;6473;51.552;6.716;2023-04-25T11:12:50;2.60;;;1.60;;
12816;SDS011;6473;51.552;6.716;2023-04-25T11:15:17;6.40;;;1.58;;
12816;SDS011;6473;51.552;6.716;2023-04-25T11:17:46;7.88;;;1.75;;
12816;SDS011;6473;51.552;6.716;2023-04-25T11:20:13;3.78;;;1.33;;
12816;SDS011;6473;51.552;6.716;2023-04-25T11:22:41;3.97;;;1.65;;
12816;SDS011;6473;51.552;6.716;2023-04-25T11:25:12;3.72;;;1.58;;
12816;SDS011;6473;51.552;6.716;2023-04-25T11:27:49;5.53;;;1.77;;
12816;SDS011;6473;51.552;6.716;2023-04-25T11:30:16;3.60;;;1.35;;
12816;SDS011;6473;51.552;6.716;2023-04-25T11:32:43;2.53;;;1.35;;
12816;SDS011;6473;51.552;6.716;2023-04-25T11:35:11;2.47;;;1.38;;
12816;SDS011;6473;51.552;6.716;2023-04-25T11:37:38;5.57;;;1.85;;
12816;SDS011;6473;51.552;6.716;2023-04-25T11:40:06;8.05;;;1.63;;
12816;SDS011;6473;51.552;6.716;2023-04-25T11:42:36;2.83;;;1.75;;
12816;SDS011;6473;51.552;6.716;2023-04-25T11:45:03;9.27;;;2.25;;
12816;SDS011;6473;51.552;6.716;2023-04-25T11:47:31;3.80;;;1.50;;
12816;SDS011;6473;51.552;6.716;2023-04-25T11:49:59;4.35;;;1.40;;
12816;SDS011;6473;51.552;6.716;2023-04-25T11:52:37;3.17;;;1.75;;
12816;SDS011;6473;51.552;6.716;2023-04-25T11:55:05;4.45;;;1.50;;
12816;SDS011;6473;51.552;6.716;2023-04-25T11:57:33;12.10;;;1.85;;
12816;SDS011;6473;51.552;6.716;2023-04-25T12:00:05;2.92;;;1.45;;
12816;SDS011;6473;51.552;6.716;2023-04-25T12:02:40;1.33;;;1.00;;
12816;SDS011;6473;51.552;6.716;2023-04-25T12:05:08;1.90;;;1.20;;
12816;SDS011;6473;51.552;6.716;2023-04-25T12:07:35;2.33;;;1.48;;
12816;SDS011;6473;51.552;6.716;2023-04-25T12:10:06;7.53;;;1.40;;
12816;SDS011;6473;51.552;6.716;2023-04-25T12:12:35;2.97;;;1.40;;
12816;SDS011;6473;51.552;6.716;2023-04-25T12:15:10;2.47;;;1.30;;
12816;SDS011;6473;51.552;6.716;2023-04-25T12:17:40;2.30;;;1.63;;
12816;SDS011;6473;51.552;6.716;2023-04-25T12:20:08;4.63;;;1.88;;
12816;SDS011;6473;51.552;6.716;2023-04-25T12:22:40;1.98;;;1.08;;
12816;SDS011;6473;51.552;6.716;2023-04-25T12:25:09;6.10;;;1.45;;
12816;SDS011;6473;51.552;6.716;2023-04-25T12:27:38;3.88;;;1.20;;
12816;SDS011;6473;51.552;6.716;2023-04-25T12:30:07;3.70;;;1.60;;
12816;SDS011;6473;51.552;6.716;2023-04-25T12:32:35;3.17;;;1.45;;
12816;SDS011;6473;51.552;6.716;2023-04-25T12:35:03;4.13;;;1.35;;
12816;SDS011;6473;51.552;6.716;2023-04-25T12:37:31;2.97;;;1.65;;
12816;SDS011;6473;51.552;6.716;2023-04-25T12:39:58;2.40;;;1.35;;
12816;SDS011;6473;51.552;6.716;2023-04-25T12:42:25;3.58;;;1.40;;
12816;SDS011;6473;51.552;6.716;2023-04-25T12:44:54;3.25;;;1.40;;
12816;SDS011;6473;51.552;6.716;2023-04-25T12:47:20;8.45;;;2.05;;
12816;SDS011;6473;51.552;6.716;2023-04-25T12:49:47;1.50;;;1.23;;
12816;SDS011;6473;51.552;6.716;2023-04-25T12:52:15;4.60;;;1.40;;
12816;SDS011;6473;51.552;6.716;2023-04-25T12:54:41;1.45;;;1.25;;
12816;SDS011;6473;51.552;6.716;2023-04-25T12:57:09;4.03;;;1.70;;
12816;SDS011;6473;51.552;6.716;2023-04-25T12:59:36;4.72;;;1.48;;
12816;SDS011;6473;51.552;6.716;2023-04-25T13:02:04;5.30;;;1.45;;
12816;SDS011;6473;51.552;6.716;2023-04-25T13:04:31;6.68;;;1.85;;
12816;SDS011;6473;51.552;6.716;2023-04-25T13:06:58;4.72;;;1.48;;
12816;SDS011;6473;51.552;6.716;2023-04-25T13:09:25;1.58;;;1.20;;
12816;SDS011;6473;51.552;6.716;2023-04-25T13:11:51;4.30;;;1.73;;
12816;SDS011;6473;51.552;6.716;2023-04-25T13:14:18;2.90;;;1.40;;
12816;SDS011;6473;51.552;6.716;2023-04-25T13:16:45;1.70;;;1.30;;
12816;SDS011;6473;51.552;6.716;2023-04-25T13:19:13;2.72;;;1.50;;
12816;SDS011;6473;51.552;6.716;2023-04-25T13:21:40;4.85;;;1.67;;
12816;SDS011;6473;51.552;6.716;2023-04-25T13:24:06;3.13;;;2.10;;
12816;SDS011;6473;51.552;6.716;2023-04-25T13:26:33;1.85;;;1.30;;
12816;SDS011;6473;51.552;6.716;2023-04-25T13:29:00;3.22;;;1.50;;
12816;SDS011;6473;51.552;6.716;2023-04-25T13:31:28;5.75;;;1.80;;
12816;SDS011;6473;51.552;6.716;2023-04-25T13:33:56;1.50;;;1.40;;
12816;SDS011;6473;51.552;6.716;2023-04-25T13:36:25;5.40;;;1.77;;
12816;SDS011;6473;51.552;6.716;2023-04-25T13:38:52;2.03;;;1.48;;
12816;SDS011;6473;51.552;6.716;2023-04-25T13:41:20;3.60;;;1.40;;
12816;SDS011;6473;51.552;6.716;2023-04-25T13:43:46;1.98;;;1.27;;
12816;SDS011;6473;51.552;6.716;2023-04-25T13:46:13;3.05;;;1.35;;
12816;SDS011;6473;51.552;6.716;2023-04-25T13:48:41;1.75;;;1.40;;
12816;SDS011;6473;51.552;6.716;2023-04-25T13:51:13;3.03;;;1.75;;
12816;SDS011;6473;51.552;6.716;2023-04-25T13:53:42;1.98;;;1.23;;
12816;SDS011;6473;51.552;6.716;2023-04-25T13:56:09;2.28;;;1.45;;
12816;SDS011;6473;51.552;6.716;2023-04-25T13:58:37;4.10;;;1.90;;
12816;SDS011;6473;51.552;6.716;2023-04-25T14:01:04;2.97;;;1.45;;
12816;SDS011;6473;51.552;6.716;2023-04-25T14:03:31;4.57;;;1.50;;
12816;SDS011;6473;51.552;6.716;2023-04-25T14:05:58;2.42;;;1.52;;
12816;SDS011;6473;51.552;6.716;2023-04-25T14:08:25;1.67;;;1.30;;
12816;SDS011;6473;51.552;6.716;2023-04-25T14:10:55;3.45;;;1.40;;
12816;SDS011;6473;51.552;6.716;2023-04-25T14:13:21;4.53;;;1.80;;
12816;SDS011;6473;51.552;6.716;2023-04-25T14:15:50;2.58;;;1.60;;
12816;SDS011;6473;51.552;6.716;2023-04-25T14:18:17;6.85;;;1.80;;
12816;SDS011;6473;51.552;6.716;2023-04-25T14:20:44;4.88;;;1.50;;
12816;SDS011;6473;51.552;6.716;2023-04-25T14:23:11;5.80;;;1.60;;
12816;SDS011;6473;51.552;6.716;2023-04-25T14:25:39;5.90;;;1.60;;
12816;SDS011;6473;51.552;6.716;2023-04-25T14:28:08;3.22;;;1.40;;
12816;SDS011;6473;51.552;6.716;2023-04-25T14:30:36;3.40;;;1.25;;
12816;SDS011;6473;51.552;6.716;2023-04-25T14:33:02;3.65;;;1.33;;
12816;SDS011;6473;51.552;6.716;2023-04-25T14:35:30;4.22;;;1.65;;
12816;SDS011;6473;51.552;6.716;2023-04-25T14:37:57;8.07;;;1.67;;
12816;SDS011;6473;51.552;6.716;2023-04-25T14:40:23;3.10;;;1.73;;
12816;SDS011;6473;51.552;6.716;2023-04-25T14:42:51;1.95;;;0.98;;
12816;SDS011;6473;51.552;6.716;2023-04-25T14:45:19;19.90;;;3.13;;
12816;SDS011;6473;51.552;6.716;2023-04-25T14:47:46;1.85;;;1.10;;
12816;SDS011;6473;51.552;6.716;2023-04-25T14:50:13;2.58;;;1.15;;
12816;SDS011;6473;51.552;6.716;2023-04-25T14:52:40;4.57;;;1.40;;
12816;SDS011;6473;51.552;6.716;2023-04-25T14:55:08;1.63;;;0.93;;
12816;SDS011;6473;51.552;6.716;2023-04-25T14:57:35;4.97;;;1.70;;
12816;SDS011;6473;51.552;6.716;2023-04-25T15:00:03;3.75;;;1.50;;
12816;SDS011;6473;51.552;6.716;2023-04-25T15:02:35;3.60;;;1.20;;
12816;SDS011;6473;51.552;6.716;2023-04-25T15:05:02;4.43;;;1.77;;
12816;SDS011;6473;51.552;6.716;2023-04-25T15:07:29;3.05;;;1.10;;
12816;SDS011;6473;51.552;6.716;2023-04-25T15:09:56;2.80;;;1.40;;
12816;SDS011;6473;51.552;6.716;2023-04-25T15:12:24;2.25;;;1.15;;
12816;SDS011;6473;51.552;6.716;2023-04-25T15:14:53;1.98;;;1.55;;
12816;SDS011;6473;51.552;6.716;2023-04-25T15:17:20;7.45;;;1.63;;
12816;SDS011;6473;51.552;6.716;2023-04-25T15:19:48;5.80;;;1.48;;
12816;SDS011;6473;51.552;6.716;2023-04-25T15:22:15;1.98;;;1.23;;